createdAt,value
2022-11-18T00:02:13.948Z,98541.78
2022-11-18T00:05:19.151Z,98546.00
2022-11-18T00:08:23.090Z,98537.44
2022-11-18T00:11:47.433Z,98534.66
2022-11-18T00:14:51.100Z,98539.16
2022-11-18T00:17:54.810Z,98539.41
2022-11-18T00:21:04.471Z,98542.03
2022-11-18T00:24:08.672Z,98539.69
2022-11-18T00:27:12.430Z,98546.25
2022-11-18T00:30:16.350Z,98539.69
2022-11-18T00:33:20.081Z,98544.50
2022-11-18T00:36:25.291Z,98542.00
2022-11-18T00:39:29.011Z,98531.84
2022-11-18T00:42:50.111Z,98539.94
2022-11-18T00:45:53.914Z,98539.88
2022-11-18T00:48:57.725Z,98547.88
2022-11-18T00:52:02.793Z,98545.97
2022-11-18T00:55:07.202Z,98546.19
2022-11-18T00:58:14.321Z,98544.56
2022-11-18T01:01:18.342Z,98546.34
2022-11-18T01:04:22.151Z,98544.25
2022-11-18T01:07:27.314Z,98554.63
2022-11-18T01:10:31.102Z,98556.59
2022-11-18T01:13:33.780Z,98552.81
2022-11-18T01:16:37.510Z,98551.25
2022-11-18T01:19:41.254Z,98538.56
2022-11-18T01:22:46.421Z,98537.22
2022-11-18T01:25:51.297Z,98531.25
2022-11-18T01:28:57.341Z,98541.59
2022-11-18T01:32:23.301Z,98542.91
2022-11-18T01:35:24.719Z,98533.25
2022-11-18T01:38:30.191Z,98537.59
2022-11-18T01:41:34.261Z,98536.34
2022-11-18T01:45:05.456Z,98535.63
2022-11-18T01:48:14.672Z,98529.75
2022-11-18T01:51:21.380Z,98530.66
2022-11-18T01:54:30.920Z,98530.00
2022-11-18T01:57:34.730Z,98537.94
2022-11-18T02:00:39.332Z,98529.94
2022-11-18T02:03:44.971Z,98526.78
2022-11-18T02:06:49.710Z,98532.56
2022-11-18T02:09:58.193Z,98539.41
2022-11-18T02:13:03.028Z,98539.97
2022-11-18T02:16:13.801Z,98530.75
2022-11-18T02:19:37.091Z,98525.97
2022-11-18T02:23:16.541Z,98529.34
2022-11-18T02:26:44.596Z,98522.34
2022-11-18T02:29:57.107Z,98528.28
2022-11-18T02:33:08.570Z,98522.16
2022-11-18T02:36:20.141Z,98515.03
2022-11-18T02:39:29.812Z,98513.84
2022-11-18T02:42:37.221Z,98515.31
2022-11-18T02:45:47.994Z,98515.31
2022-11-18T02:48:53.984Z,98509.94
2022-11-18T02:51:58.867Z,98513.00
2022-11-18T02:55:04.284Z,98514.38
2022-11-18T02:58:09.325Z,98521.00
2022-11-18T03:01:21.796Z,98516.06
2022-11-18T03:04:27.682Z,98526.44
2022-11-18T03:07:33.568Z,98531.94
2022-11-18T03:10:44.823Z,98534.34
2022-11-18T03:14:03.333Z,98529.34
2022-11-18T03:17:13.591Z,98519.00
2022-11-18T03:20:24.070Z,98521.63
2022-11-18T03:23:33.312Z,98526.06
2022-11-18T03:26:40.281Z,98537.59
2022-11-18T03:29:49.511Z,98534.03
2022-11-18T03:33:01.522Z,98524.34
2022-11-18T03:36:09.384Z,98534.28
2022-11-18T03:39:17.278Z,98530.75
2022-11-18T03:42:26.292Z,98541.00
2022-11-18T03:45:36.632Z,98547.16
2022-11-18T03:48:47.101Z,98550.09
2022-11-18T03:51:55.405Z,98555.47
2022-11-18T03:55:02.814Z,98565.56
2022-11-18T03:58:11.811Z,98555.09
2022-11-18T04:01:19.832Z,98549.44
2022-11-18T04:04:27.254Z,98558.34
2022-11-18T04:07:34.776Z,98574.38
2022-11-18T04:10:42.451Z,98568.28
2022-11-18T04:13:46.642Z,98573.16
2022-11-18T04:16:54.408Z,98571.22
2022-11-18T04:19:59.621Z,98568.78
2022-11-18T04:23:03.263Z,98573.88
2022-11-18T04:26:07.110Z,98567.53
2022-11-18T04:29:10.662Z,98565.22
2022-11-18T04:32:14.382Z,98569.75
2022-11-18T04:35:19.571Z,98573.13
2022-11-18T04:38:23.232Z,98572.94
2022-11-18T04:41:46.912Z,98574.31
2022-11-18T04:44:50.711Z,98581.59
2022-11-18T04:47:58.855Z,98580.78
2022-11-18T04:51:07.632Z,98577.88
2022-11-18T04:54:12.031Z,98578.69
2022-11-18T04:57:15.972Z,98585.94
2022-11-18T05:00:20.112Z,98583.41
2022-11-18T05:03:23.729Z,98582.66
2022-11-18T05:06:29.481Z,98585.78
2022-11-18T05:09:33.258Z,98572.28
2022-11-18T05:12:50.652Z,98571.25
2022-11-18T05:15:54.333Z,98577.53
2022-11-18T05:18:58.010Z,98573.69
2022-11-18T05:22:03.180Z,98573.81
2022-11-18T05:25:07.981Z,98573.88
2022-11-18T05:28:11.680Z,98579.94
2022-11-18T05:31:17.055Z,98572.75
2022-11-18T05:34:21.051Z,98575.22
2022-11-18T05:37:26.171Z,98576.66
2022-11-18T05:40:29.981Z,98583.28
2022-11-18T05:43:33.059Z,98583.00
2022-11-18T05:46:36.743Z,98590.19
2022-11-18T05:49:40.421Z,98590.84
2022-11-18T05:52:45.503Z,98594.91
2022-11-18T05:55:55.053Z,98601.81
2022-11-18T05:58:58.691Z,98595.38
2022-11-18T06:02:04.453Z,98594.66
2022-11-18T06:05:09.072Z,98599.63
2022-11-18T06:08:17.470Z,98603.72
2022-11-18T06:11:22.453Z,98613.06
2022-11-18T06:14:30.333Z,98607.38
2022-11-18T06:17:41.011Z,98610.34
2022-11-18T06:20:44.911Z,98613.09
2022-11-18T06:23:50.358Z,98605.00
2022-11-18T06:26:54.802Z,98603.66
2022-11-18T06:29:58.541Z,98600.91
2022-11-18T06:33:02.264Z,98588.59
2022-11-18T06:36:06.332Z,98596.94
2022-11-18T06:39:11.581Z,98601.47
2022-11-18T06:42:35.705Z,98599.53
2022-11-18T06:45:39.563Z,98605.44
2022-11-18T06:48:43.252Z,98608.69
2022-11-18T06:51:46.994Z,98611.78
2022-11-18T06:54:52.082Z,98607.03
2022-11-18T06:57:57.822Z,98602.34
2022-11-18T07:01:10.962Z,98601.44
2022-11-18T07:04:14.684Z,98601.16
2022-11-18T07:07:18.426Z,98593.03
2022-11-18T07:10:23.694Z,98583.47
2022-11-18T07:13:27.412Z,98580.22
2022-11-18T07:16:31.090Z,98571.94
2022-11-18T07:19:36.104Z,98577.09
2022-11-18T07:22:39.938Z,98577.75
2022-11-18T07:25:48.262Z,98571.94
2022-11-18T07:28:52.751Z,98581.44
2022-11-18T07:31:56.711Z,98584.59
2022-11-18T07:35:00.714Z,98585.31
2022-11-18T07:38:04.753Z,98584.94
2022-11-18T07:41:12.322Z,98586.59
2022-11-18T07:44:17.801Z,98604.16
2022-11-18T07:47:22.006Z,98609.75
2022-11-18T07:50:26.061Z,98605.09
2022-11-18T07:53:32.391Z,98598.69
2022-11-18T07:56:43.013Z,98608.69
2022-11-18T07:59:49.839Z,98597.47
2022-11-18T08:02:54.080Z,98589.94
2022-11-18T08:06:01.310Z,98588.53
2022-11-18T08:09:09.113Z,98587.53
2022-11-18T08:12:14.701Z,98577.75
2022-11-18T08:15:22.041Z,98583.16
2022-11-18T08:18:27.111Z,98587.41
2022-11-18T08:21:31.271Z,98595.25
2022-11-18T08:24:35.031Z,98591.34
2022-11-18T08:27:40.255Z,98588.81
2022-11-18T08:30:44.153Z,98590.97
2022-11-18T08:33:48.442Z,98580.00
2022-11-18T08:36:54.327Z,98588.84
2022-11-18T08:40:01.921Z,98598.28
2022-11-18T08:43:07.790Z,98583.06
2022-11-18T08:46:12.131Z,98592.44
2022-11-18T08:49:17.081Z,98588.38
2022-11-18T08:52:21.780Z,98590.50
2022-11-18T08:55:26.205Z,98581.59
2022-11-18T08:58:45.361Z,98587.47
2022-11-18T09:01:50.130Z,98583.22
2022-11-18T09:04:54.911Z,98577.91
2022-11-18T09:07:59.820Z,98568.41
2022-11-18T09:11:10.131Z,98558.31
2022-11-18T09:15:11.668Z,98550.91
2022-11-18T09:17:45.150Z,98554.50
2022-11-18T09:21:06.981Z,98545.81
2022-11-18T09:24:18.107Z,98529.75
2022-11-18T09:27:24.869Z,98523.03
2022-11-18T09:30:33.172Z,98527.53
2022-11-18T09:33:39.861Z,98527.38
2022-11-18T09:36:43.956Z,98522.38
2022-11-18T09:39:48.314Z,98515.03
2022-11-18T09:43:06.661Z,98525.75
2022-11-18T09:46:24.831Z,98495.56
2022-11-18T09:49:36.613Z,98497.41
2022-11-18T09:52:46.601Z,98490.72
2022-11-18T09:55:52.230Z,98464.88
2022-11-18T09:58:57.291Z,98476.34
2022-11-18T10:02:27.911Z,98469.00
2022-11-18T10:05:34.040Z,98469.22
2022-11-18T10:08:44.763Z,98474.69
2022-11-18T10:12:04.295Z,98465.16
2022-11-18T10:15:22.020Z,98468.34
2022-11-18T10:18:58.423Z,98466.13
2022-11-18T10:22:11.757Z,98468.34
2022-11-18T10:25:19.931Z,98458.44
2022-11-18T10:28:25.991Z,98455.00
2022-11-18T10:31:29.669Z,98438.28
2022-11-18T10:34:36.571Z,98434.84
2022-11-18T10:38:06.880Z,98429.41
2022-11-18T10:41:06.880Z,98417.44
2022-11-18T10:44:32.290Z,98427.91
2022-11-18T10:47:36.059Z,98428.41
2022-11-18T10:50:43.491Z,98422.81
2022-11-18T10:53:47.569Z,98424.88
2022-11-18T10:56:58.092Z,98424.56
2022-11-18T11:00:02.237Z,98433.09
2022-11-18T11:03:25.005Z,98418.44
2022-11-18T11:06:37.629Z,98418.81
2022-11-18T11:09:41.304Z,98416.19
2022-11-18T11:12:50.430Z,98414.66
2022-11-18T11:15:57.352Z,98408.53
2022-11-18T11:19:03.820Z,98398.06
2022-11-18T11:22:13.092Z,98380.97
2022-11-18T11:25:19.551Z,98400.09
2022-11-18T11:28:31.209Z,98394.28
2022-11-18T11:31:46.519Z,98382.06
2022-11-18T11:35:00.113Z,98379.91
2022-11-18T11:38:14.669Z,98384.91
2022-11-18T11:41:24.209Z,98386.81
2022-11-18T11:44:41.649Z,98393.13
2022-11-18T11:47:57.433Z,98383.19
2022-11-18T11:51:06.909Z,98366.03
2022-11-18T11:54:46.440Z,98372.22
2022-11-18T11:58:03.419Z,98355.50
2022-11-18T12:01:19.140Z,98355.00
2022-11-18T12:04:34.739Z,98356.00
2022-11-18T12:07:47.438Z,98352.75
2022-11-18T12:11:02.123Z,98349.94
2022-11-18T12:14:14.383Z,98357.91
2022-11-18T12:17:26.379Z,98346.50
2022-11-18T12:20:48.240Z,98342.25
2022-11-18T12:24:31.362Z,98343.91
2022-11-18T12:28:03.610Z,98342.88
2022-11-18T12:31:43.757Z,98339.31
2022-11-18T12:34:47.464Z,98343.03
2022-11-18T12:38:02.710Z,98341.38
2022-11-18T12:42:04.613Z,98335.34
2022-11-18T12:45:41.597Z,98332.88
2022-11-18T12:48:46.751Z,98326.00
2022-11-18T12:51:51.249Z,98320.19
2022-11-18T12:54:55.325Z,98319.81
2022-11-18T12:57:59.400Z,98314.94
2022-11-18T13:01:08.643Z,98313.50
2022-11-18T13:04:17.960Z,98335.31
2022-11-18T13:07:39.456Z,98332.72
2022-11-18T13:10:54.683Z,98323.84
2022-11-18T13:14:17.250Z,98314.31
2022-11-18T13:17:54.003Z,98306.38
2022-11-18T13:21:21.050Z,98302.16
2022-11-18T13:24:24.140Z,98285.91
2022-11-18T13:27:41.060Z,98292.00
2022-11-18T13:30:52.591Z,98296.88
2022-11-18T13:33:56.630Z,98270.88
2022-11-18T13:37:02.420Z,98289.00
2022-11-18T13:40:18.001Z,98279.97
2022-11-18T13:43:27.431Z,98276.34
2022-11-18T13:46:31.212Z,98278.78
2022-11-18T13:49:50.090Z,98291.91
2022-11-18T13:53:16.302Z,98308.22
2022-11-18T13:56:24.731Z,98291.69
2022-11-18T13:59:29.424Z,98295.06
2022-11-18T14:02:34.221Z,98285.41
2022-11-18T14:05:37.950Z,98267.03
2022-11-18T14:08:43.171Z,98266.84
2022-11-18T14:11:59.560Z,98297.25
2022-11-18T14:15:27.300Z,98295.63
2022-11-18T14:18:34.426Z,98286.78
2022-11-18T14:21:39.640Z,98302.59
2022-11-18T14:24:45.721Z,98293.13
2022-11-18T14:27:52.803Z,98297.81
2022-11-18T14:31:04.060Z,98293.00
2022-11-18T14:34:19.750Z,98291.31
2022-11-18T14:37:23.510Z,98289.09
2022-11-18T14:40:28.770Z,98288.72
2022-11-18T14:43:32.521Z,98274.59
2022-11-18T14:46:39.368Z,98270.38
2022-11-18T14:49:43.201Z,98263.31
2022-11-18T14:52:47.098Z,98265.78
2022-11-18T14:55:53.920Z,98256.75
2022-11-18T14:58:57.581Z,98248.16
2022-11-18T15:02:01.457Z,98251.50
2022-11-18T15:05:05.290Z,98253.41
2022-11-18T15:08:09.498Z,98248.59
2022-11-18T15:11:15.071Z,98233.09
2022-11-18T15:14:19.964Z,98235.75
2022-11-18T15:17:24.087Z,98231.34
2022-11-18T15:20:27.921Z,98223.19
2022-11-18T15:23:32.350Z,98228.75
2022-11-18T15:26:42.120Z,98236.28
2022-11-18T15:29:48.202Z,98231.09
2022-11-18T15:32:51.920Z,98239.47
2022-11-18T15:35:55.701Z,98235.84
2022-11-18T15:38:59.710Z,98234.06
2022-11-18T15:42:04.940Z,98243.28
2022-11-18T15:45:09.233Z,98232.75
2022-11-18T15:48:12.949Z,98251.41
2022-11-18T15:51:16.704Z,98257.81
2022-11-18T15:54:20.878Z,98243.31
2022-11-18T15:57:26.311Z,98228.06
2022-11-18T16:00:30.080Z,98229.72
2022-11-18T16:03:35.356Z,98210.94
2022-11-18T16:06:39.289Z,98222.38
2022-11-18T16:10:01.641Z,98230.06
2022-11-18T16:13:06.731Z,98222.25
2022-11-18T16:16:18.885Z,98239.66
2022-11-18T16:19:25.111Z,98251.94
2022-11-18T16:22:28.914Z,98257.41
2022-11-18T16:25:32.541Z,98234.00
2022-11-18T16:28:37.780Z,98234.91
2022-11-18T16:31:41.620Z,98210.56
2022-11-18T16:34:45.351Z,98214.53
2022-11-18T16:37:49.129Z,98229.47
2022-11-18T16:40:57.297Z,98227.09
2022-11-18T16:44:04.701Z,98207.06
2022-11-18T16:47:14.376Z,98205.88
2022-11-18T16:50:19.400Z,98206.44
2022-11-18T16:53:23.030Z,98216.94
2022-11-18T16:56:29.000Z,98223.97
2022-11-18T16:59:34.329Z,98199.22
2022-11-18T17:02:38.076Z,98201.66
2022-11-18T17:05:41.951Z,98196.03
2022-11-18T17:08:45.689Z,98197.16
2022-11-18T17:11:50.101Z,98205.16
2022-11-18T17:14:55.171Z,98214.66
2022-11-18T17:17:58.869Z,98230.41
2022-11-18T17:21:07.219Z,98262.47
2022-11-18T17:24:12.361Z,98241.00
2022-11-18T17:27:16.079Z,98236.44
2022-11-18T17:30:21.590Z,98231.59
2022-11-18T17:33:25.370Z,98215.28
2022-11-18T17:36:29.789Z,98224.72
2022-11-18T17:39:33.761Z,98197.13
2022-11-18T17:42:37.510Z,98236.81
2022-11-18T17:45:43.600Z,98234.69
2022-11-18T17:48:47.320Z,98247.94
2022-11-18T17:51:52.440Z,98250.81
2022-11-18T17:54:56.183Z,98230.91
2022-11-18T17:57:59.960Z,98231.84
2022-11-18T18:01:10.157Z,98224.94
2022-11-18T18:04:14.881Z,98223.69
2022-11-18T18:07:18.810Z,98242.91
2022-11-18T18:10:22.630Z,98246.94
2022-11-18T18:13:43.656Z,98240.34
2022-11-18T18:16:50.209Z,98232.72
2022-11-18T18:19:53.939Z,98236.09
2022-11-18T18:22:57.900Z,98236.28
2022-11-18T18:26:03.290Z,98238.72
2022-11-18T18:29:07.162Z,98235.97
2022-11-18T18:32:12.360Z,98244.06
2022-11-18T18:35:16.119Z,98252.31
2022-11-18T18:38:20.109Z,98257.81
2022-11-18T18:41:24.609Z,98235.00
2022-11-18T18:44:48.201Z,98228.47
2022-11-18T18:47:52.690Z,98219.19
2022-11-18T18:51:05.460Z,98243.97
2022-11-18T18:54:12.620Z,98237.22
2022-11-18T18:57:16.260Z,98240.88
2022-11-18T19:00:20.439Z,98232.06
2022-11-18T19:03:25.581Z,98242.94
2022-11-18T19:09:55.958Z,98261.50
2022-11-18T19:13:00.028Z,98263.16
2022-11-18T19:16:07.267Z,98268.94
2022-11-18T19:19:15.410Z,98255.91
2022-11-18T19:22:19.139Z,98259.88
2022-11-18T19:25:23.139Z,98262.56
2022-11-18T19:28:26.950Z,98244.28
2022-11-18T19:31:30.719Z,98245.75
2022-11-18T19:34:35.958Z,98248.97
2022-11-18T19:37:39.709Z,98260.44
2022-11-18T19:40:43.539Z,98264.63
2022-11-18T19:43:47.319Z,98277.81
2022-11-18T19:46:50.989Z,98260.34
2022-11-18T19:49:56.128Z,98268.66
2022-11-18T19:53:19.888Z,98271.53
2022-11-18T19:56:23.709Z,98271.09
2022-11-18T19:59:27.558Z,98297.31
2022-11-18T20:02:31.218Z,98285.53
2022-11-18T20:05:56.108Z,98286.63
2022-11-18T20:08:59.967Z,98283.09
2022-11-18T20:12:03.787Z,98285.75
2022-11-18T20:15:08.494Z,98266.63
2022-11-18T20:18:12.678Z,98292.63
2022-11-18T20:21:21.127Z,98293.94
2022-11-18T20:24:24.972Z,98283.34
2022-11-18T20:27:28.679Z,98317.50
2022-11-18T20:30:32.458Z,98316.88
2022-11-18T20:33:36.967Z,98310.50
2022-11-18T20:36:42.620Z,98306.13
2022-11-18T20:39:46.377Z,98302.94
2022-11-18T20:43:07.528Z,98285.19
2022-11-18T20:46:15.916Z,98297.88
2022-11-18T20:49:23.648Z,98296.88
2022-11-18T20:52:28.868Z,98314.00
2022-11-18T20:55:32.908Z,98311.59
2022-11-18T20:58:36.660Z,98317.03
2022-11-18T21:01:40.547Z,98333.72
2022-11-18T21:04:44.398Z,98324.47
2022-11-18T21:07:50.849Z,98329.81
2022-11-18T21:10:54.600Z,98331.47
2022-11-18T21:14:21.600Z,98333.03
2022-11-18T21:17:27.411Z,98338.03
2022-11-18T21:20:48.660Z,98330.56
2022-11-18T21:23:56.631Z,98335.47
2022-11-18T21:27:02.071Z,98349.66
2022-11-18T21:30:06.702Z,98352.13
2022-11-18T21:33:10.441Z,98348.78
2022-11-18T21:36:14.091Z,98349.28
2022-11-18T21:39:19.591Z,98326.88
2022-11-18T21:42:23.571Z,98331.09
2022-11-18T21:45:27.303Z,98332.84
2022-11-18T21:48:31.441Z,98327.19
2022-11-18T21:51:36.170Z,98320.41
2022-11-18T21:54:41.320Z,98337.03
2022-11-18T21:57:45.001Z,98337.78
2022-11-18T22:00:48.823Z,98358.31
2022-11-18T22:03:55.702Z,98376.56
2022-11-18T22:06:59.755Z,98375.31
2022-11-18T22:10:05.320Z,98370.94
2022-11-18T22:13:09.030Z,98387.94
2022-11-18T22:16:14.901Z,98385.16
2022-11-18T22:19:18.730Z,98382.56
2022-11-18T22:22:22.619Z,98385.84
2022-11-18T22:25:27.736Z,98384.31
2022-11-18T22:28:31.944Z,98375.97
2022-11-18T22:31:35.698Z,98374.09
2022-11-18T22:34:39.397Z,98376.81
2022-11-18T22:37:43.166Z,98390.53
2022-11-18T22:40:48.448Z,98392.25
2022-11-18T22:43:51.167Z,98412.25
2022-11-18T22:46:54.846Z,98408.75
2022-11-18T22:49:58.578Z,98408.41
2022-11-18T22:53:02.411Z,98413.22
2022-11-18T22:56:09.477Z,98391.00
2022-11-18T22:59:13.466Z,98408.91
2022-11-18T23:02:17.188Z,98414.06
2022-11-18T23:05:20.897Z,98397.94
2022-11-18T23:08:25.956Z,98391.25
2022-11-18T23:11:49.884Z,98401.28
2022-11-18T23:14:53.783Z,98402.19
2022-11-18T23:17:57.454Z,98403.47
2022-11-18T23:21:02.027Z,98412.19
2022-11-18T23:24:06.953Z,98425.50
2022-11-18T23:27:12.172Z,98414.56
2022-11-18T23:30:16.011Z,98425.09
2022-11-18T23:33:19.782Z,98432.41
2022-11-18T23:36:23.745Z,98443.22
2022-11-18T23:39:27.724Z,98439.91
2022-11-18T23:42:32.866Z,98452.16
2022-11-18T23:45:36.622Z,98456.81
2022-11-18T23:48:42.284Z,98466.91
2022-11-18T23:51:46.093Z,98456.59
2022-11-18T23:54:52.181Z,98467.31
2022-11-18T23:57:57.165Z,98469.69
